createdAt,value
2023-03-23T00:00:00.669Z,977.1
2023-03-23T00:01:00.676Z,977.1
2023-03-23T00:02:00.695Z,977.1
2023-03-23T00:03:00.695Z,977.1
2023-03-23T00:04:00.682Z,977.1
2023-03-23T00:05:00.663Z,977.1
2023-03-23T00:06:00.667Z,977.1
2023-03-23T00:07:00.695Z,977.3
2023-03-23T00:08:00.663Z,977.1
2023-03-23T00:09:00.674Z,977.1
2023-03-23T00:10:00.697Z,976.9
2023-03-23T00:11:00.686Z,977.3
2023-03-23T00:12:00.688Z,977.3
2023-03-23T00:13:00.705Z,977.3
2023-03-23T00:14:00.673Z,977.5
2023-03-23T00:15:00.689Z,977.5
2023-03-23T00:16:04.450Z,977.5
2023-03-23T00:17:00.691Z,977.5
2023-03-23T00:18:00.692Z,977.1
2023-03-23T00:19:00.674Z,977.1
2023-03-23T00:20:00.685Z,977.1
2023-03-23T00:21:00.684Z,977.5
2023-03-23T00:22:00.697Z,977.5
2023-03-23T00:23:00.700Z,977.3
2023-03-23T00:24:00.685Z,977.5
2023-03-23T00:25:00.817Z,977.5
2023-03-23T00:26:00.682Z,977.5
2023-03-23T00:27:00.666Z,977.5
2023-03-23T00:28:00.637Z,977.5
2023-03-23T00:29:00.589Z,978
2023-03-23T00:30:00.564Z,978
2023-03-23T00:31:00.529Z,978
2023-03-23T00:32:00.535Z,978
2023-03-23T00:33:00.496Z,978
2023-03-23T00:34:00.440Z,977.5
2023-03-23T00:35:00.419Z,977.5
2023-03-23T00:36:00.391Z,977.3
2023-03-23T00:37:00.356Z,977.5
2023-03-23T00:38:00.361Z,977.3
2023-03-23T00:39:00.361Z,977.5
2023-03-23T00:40:00.344Z,977.7
2023-03-23T00:41:00.362Z,977.7
2023-03-23T00:42:00.344Z,977.7
2023-03-23T00:43:00.365Z,977.7
2023-03-23T00:44:00.342Z,978
2023-03-23T00:45:00.358Z,978
2023-03-23T00:46:00.363Z,978
2023-03-23T00:47:00.342Z,978
2023-03-23T00:48:00.366Z,977.7
2023-03-23T00:49:00.346Z,978
2023-03-23T00:50:00.354Z,978
2023-03-23T00:51:00.371Z,978
2023-03-23T00:52:00.356Z,977.7
2023-03-23T00:53:00.381Z,977.1
2023-03-23T00:54:00.355Z,977.1
2023-03-23T00:55:00.360Z,976.9
2023-03-23T00:56:00.382Z,977.1
2023-03-23T00:57:00.354Z,977.5
2023-03-23T00:58:00.379Z,977.5
2023-03-23T00:59:00.356Z,977.5
2023-03-23T01:00:05.787Z,977.5
2023-03-23T01:01:00.387Z,977.5
2023-03-23T01:02:00.383Z,977.7
2023-03-23T01:03:00.382Z,977.7
2023-03-23T01:04:00.370Z,977.3
2023-03-23T01:05:00.364Z,977.5
2023-03-23T01:06:00.388Z,978
2023-03-23T01:07:00.363Z,977.5
2023-03-23T01:08:00.385Z,977.5
2023-03-23T01:09:00.369Z,978
2023-03-23T01:10:00.374Z,978
2023-03-23T01:11:00.387Z,978
2023-03-23T01:12:00.478Z,978
2023-03-23T01:13:00.405Z,978
2023-03-23T01:14:00.387Z,978.2
2023-03-23T01:15:00.374Z,978
2023-03-23T01:16:00.392Z,978.2
2023-03-23T01:17:00.379Z,978.2
2023-03-23T01:18:00.398Z,978.2
2023-03-23T01:19:00.395Z,978.4
2023-03-23T01:20:00.386Z,978.2
2023-03-23T01:21:00.403Z,978.2
2023-03-23T01:22:00.377Z,978.4
2023-03-23T01:23:00.412Z,978.4
2023-03-23T01:24:00.385Z,978.4
2023-03-23T01:25:00.387Z,978.4
2023-03-23T01:26:00.401Z,978.2
2023-03-23T01:27:00.387Z,978.4
2023-03-23T01:28:01.367Z,978.4
2023-03-23T01:29:00.391Z,978.4
2023-03-23T01:30:00.418Z,978.4
2023-03-23T01:31:00.409Z,978.4
2023-03-23T01:32:01.033Z,978.4
2023-03-23T01:33:00.435Z,978.4
2023-03-23T01:34:00.396Z,978.4
2023-03-23T01:35:00.413Z,978.4
2023-03-23T01:36:00.444Z,978.4
2023-03-23T01:37:00.394Z,978.4
2023-03-23T01:38:00.396Z,978.4
2023-03-23T01:39:00.399Z,978.4
2023-03-23T01:40:00.429Z,978
2023-03-23T01:41:00.433Z,977.7
2023-03-23T01:42:00.428Z,978
2023-03-23T01:43:00.413Z,978.2
2023-03-23T01:44:00.417Z,978.2
2023-03-23T01:45:00.427Z,978.2
2023-03-23T01:46:00.424Z,978.2
2023-03-23T01:47:00.532Z,978.4
2023-03-23T01:48:00.407Z,978.4
2023-03-23T01:49:00.411Z,978.4
2023-03-23T01:50:00.445Z,978.4
2023-03-23T01:51:00.434Z,978.4
2023-03-23T01:52:00.416Z,978.4
2023-03-23T01:53:00.417Z,978.4
2023-03-23T01:54:00.417Z,978.8
2023-03-23T01:55:00.450Z,978.4
2023-03-23T01:56:00.451Z,978.4
2023-03-23T01:57:01.281Z,978
2023-03-23T01:58:00.427Z,978.2
2023-03-23T01:59:00.498Z,978.4
2023-03-23T02:00:00.450Z,978.2
2023-03-23T02:01:01.320Z,978
2023-03-23T02:02:01.387Z,978.2
2023-03-23T02:03:00.786Z,978
2023-03-23T02:04:00.618Z,978
2023-03-23T02:05:00.638Z,978
2023-03-23T02:06:00.578Z,977.5
2023-03-23T02:07:00.538Z,977.1
2023-03-23T02:08:00.717Z,977.5
2023-03-23T02:09:00.649Z,977.5
2023-03-23T02:10:00.784Z,977.5
2023-03-23T02:11:00.518Z,977.5
2023-03-23T02:12:00.493Z,977.7
2023-03-23T02:13:00.494Z,977.5
2023-03-23T02:14:00.460Z,977.1
2023-03-23T02:15:00.478Z,977.3
2023-03-23T02:16:00.479Z,977.1
2023-03-23T02:17:00.474Z,977.5
2023-03-23T02:18:00.472Z,977.5
2023-03-23T02:19:00.462Z,977.3
2023-03-23T02:20:00.445Z,977.1
2023-03-23T02:21:00.485Z,977.1
2023-03-23T02:22:00.463Z,977.3
2023-03-23T02:23:00.500Z,977.1
2023-03-23T02:24:00.460Z,976.7
2023-03-23T02:25:00.479Z,976.7
2023-03-23T02:26:00.483Z,976.7
2023-03-23T02:27:00.463Z,976.7
2023-03-23T02:28:00.473Z,976.9
2023-03-23T02:29:00.472Z,976.9
2023-03-23T02:30:00.454Z,977.1
2023-03-23T02:31:00.514Z,976.9
2023-03-23T02:32:00.454Z,976.7
2023-03-23T02:33:00.456Z,976.7
2023-03-23T02:34:00.675Z,976.2
2023-03-23T02:35:00.457Z,976.9
2023-03-23T02:36:00.502Z,977.1
2023-03-23T02:37:00.463Z,976.9
2023-03-23T02:38:00.463Z,976.9
2023-03-23T02:39:00.461Z,977.1
2023-03-23T02:40:00.483Z,976.9
2023-03-23T02:41:00.502Z,976.9
2023-03-23T02:42:00.493Z,977.1
2023-03-23T02:43:00.483Z,976.7
2023-03-23T02:44:00.483Z,976.4
2023-03-23T02:45:00.496Z,976.2
2023-03-23T02:46:00.472Z,976.7
2023-03-23T02:47:00.496Z,976.7
2023-03-23T02:48:00.509Z,976.4
2023-03-23T02:49:00.483Z,976.7
2023-03-23T02:50:00.531Z,976.9
2023-03-23T02:51:00.493Z,976.9
2023-03-23T02:52:00.488Z,976.7
2023-03-23T02:53:00.501Z,976.7
2023-03-23T02:54:00.479Z,976.7
2023-03-23T02:55:00.494Z,976.4
2023-03-23T02:56:00.506Z,976.2
2023-03-23T02:57:00.493Z,976.2
2023-03-23T02:58:00.504Z,975.8
2023-03-23T02:59:00.479Z,976.2
2023-03-23T03:00:00.485Z,976.2
2023-03-23T03:01:01.273Z,976
2023-03-23T03:02:01.262Z,975.8
2023-03-23T03:03:01.285Z,976.4
2023-03-23T03:04:01.264Z,976
2023-03-23T03:05:01.268Z,976.2
2023-03-23T03:06:01.264Z,976.2
2023-03-23T03:07:01.299Z,976.2
2023-03-23T03:08:01.303Z,976.2
2023-03-23T03:09:01.293Z,976.2
2023-03-23T03:10:01.301Z,976
2023-03-23T03:11:01.300Z,976
2023-03-23T03:12:01.299Z,976.2
2023-03-23T03:13:01.299Z,976.7
2023-03-23T03:14:01.276Z,976.7
2023-03-23T03:15:01.335Z,976.2
2023-03-23T03:16:01.283Z,976.2
2023-03-23T03:17:01.278Z,976.2
2023-03-23T03:18:01.311Z,976.4
2023-03-23T03:19:01.303Z,976.7
2023-03-23T03:20:01.345Z,976.7
2023-03-23T03:21:01.284Z,976.7
2023-03-23T03:22:01.289Z,976.4
2023-03-23T03:23:01.314Z,976.2
2023-03-23T03:24:01.290Z,976.2
2023-03-23T03:25:01.294Z,976.4
2023-03-23T03:26:01.315Z,976.7
2023-03-23T03:27:01.289Z,976.7
2023-03-23T03:28:02.171Z,976.4
2023-03-23T03:29:01.331Z,976.4
2023-03-23T03:30:01.383Z,976.2
2023-03-23T03:31:01.300Z,976.4
2023-03-23T03:32:01.336Z,976.7
2023-03-23T03:33:01.323Z,977.1
2023-03-23T03:34:01.327Z,976.9
2023-03-23T03:35:01.301Z,976.7
2023-03-23T03:36:01.361Z,976.7
2023-03-23T03:37:01.310Z,976.9
2023-03-23T03:38:01.355Z,976.7
2023-03-23T03:39:01.353Z,977.1
2023-03-23T03:40:01.389Z,976.9
2023-03-23T03:41:01.349Z,976.7
2023-03-23T03:42:01.338Z,976.9
2023-03-23T03:43:01.326Z,977.1
2023-03-23T03:44:01.323Z,977.1
2023-03-23T03:45:01.325Z,977.1
2023-03-23T03:46:01.316Z,977.1
2023-03-23T03:47:01.340Z,977.1
2023-03-23T03:48:01.344Z,977.1
2023-03-23T03:49:01.350Z,977.3
2023-03-23T03:50:01.356Z,977.3
2023-03-23T03:51:01.324Z,977.5
2023-03-23T03:52:01.364Z,977.5
2023-03-23T03:53:01.333Z,977.5
2023-03-23T03:54:01.338Z,977.5
2023-03-23T03:55:01.345Z,977.5
2023-03-23T03:56:01.346Z,977.3
2023-03-23T03:57:01.327Z,977.1
2023-03-23T03:58:01.378Z,977.1
2023-03-23T03:59:21.692Z,977.1
2023-03-23T04:00:01.392Z,977.1
2023-03-23T04:01:01.355Z,977.1
2023-03-23T04:02:01.345Z,977.3
2023-03-23T04:03:01.347Z,977.1
2023-03-23T04:04:01.345Z,977.1
2023-03-23T04:05:01.361Z,977.1
2023-03-23T04:06:01.397Z,977.1
2023-03-23T04:07:01.354Z,977.1
2023-03-23T04:08:09.352Z,977.1
2023-03-23T04:09:07.819Z,976.9
2023-03-23T04:10:01.371Z,977.1
2023-03-23T04:11:01.365Z,977.1
2023-03-23T04:12:01.363Z,977.5
2023-03-23T04:13:01.372Z,977.3
2023-03-23T04:14:01.375Z,977.1
2023-03-23T04:15:06.252Z,977.1
2023-03-23T04:16:07.348Z,977.1
2023-03-23T04:17:01.356Z,977.1
2023-03-23T04:18:01.356Z,976.9
2023-03-23T04:19:01.363Z,977.1
2023-03-23T04:20:01.433Z,977.1
2023-03-23T04:21:01.396Z,977.1
2023-03-23T04:22:01.357Z,977.1
2023-03-23T04:23:01.365Z,977.1
2023-03-23T04:24:01.365Z,977.1
2023-03-23T04:25:01.358Z,976.9
2023-03-23T04:26:01.380Z,976.9
2023-03-23T04:27:02.847Z,976.9
2023-03-23T04:28:01.713Z,976.7
2023-03-23T04:29:01.360Z,976.9
2023-03-23T04:30:01.380Z,976.9
2023-03-23T04:31:01.384Z,977.1
2023-03-23T04:32:01.389Z,977.1
2023-03-23T04:33:01.388Z,977.1
2023-03-23T04:34:01.432Z,976.7
2023-03-23T04:35:13.029Z,977.1
2023-03-23T04:36:01.437Z,976.9
2023-03-23T04:37:01.394Z,976.7
2023-03-23T04:38:01.378Z,976.7
2023-03-23T04:39:01.371Z,976.4
2023-03-23T04:40:01.411Z,976.2
2023-03-23T04:41:01.396Z,976.2
2023-03-23T04:42:01.372Z,976.2
2023-03-23T04:43:01.375Z,976.2
2023-03-23T04:44:01.372Z,976.2
2023-03-23T04:45:01.404Z,976.2
2023-03-23T04:46:01.403Z,976.2
2023-03-23T04:47:01.391Z,976.2
2023-03-23T04:48:01.396Z,976.2
2023-03-23T04:49:01.388Z,976.2
2023-03-23T04:50:01.422Z,976
2023-03-23T04:51:01.390Z,975.8
2023-03-23T04:52:01.384Z,976
2023-03-23T04:53:01.405Z,976
2023-03-23T04:54:01.408Z,975.8
2023-03-23T04:55:01.413Z,975.8
2023-03-23T04:56:01.411Z,975.8
2023-03-23T04:57:01.455Z,975.8
2023-03-23T04:58:01.388Z,975.8
2023-03-23T04:59:01.413Z,975.8
2023-03-23T05:00:01.508Z,975.8
2023-03-23T05:01:01.454Z,975.8
2023-03-23T05:02:14.479Z,975.8
2023-03-23T05:03:01.415Z,975.8
2023-03-23T05:04:01.419Z,975.8
2023-03-23T05:05:01.433Z,975.8
2023-03-23T05:06:01.423Z,975.6
2023-03-23T05:07:01.412Z,975.6
2023-03-23T05:08:01.405Z,975.6
2023-03-23T05:09:01.412Z,975.4
2023-03-23T05:10:01.490Z,975.4
2023-03-23T05:11:01.426Z,975.8
2023-03-23T05:12:01.434Z,975.8
2023-03-23T05:13:01.431Z,976
2023-03-23T05:14:01.405Z,976.2
2023-03-23T05:15:01.452Z,976.2
2023-03-23T05:16:01.430Z,976.2
2023-03-23T05:17:01.413Z,976.4
2023-03-23T05:18:01.409Z,976.7
2023-03-23T05:19:01.429Z,976.7
2023-03-23T05:20:01.457Z,976.7
2023-03-23T05:21:01.430Z,976.7
2023-03-23T05:22:01.418Z,976.9
2023-03-23T05:23:01.415Z,977.1
2023-03-23T05:24:01.449Z,977.1
2023-03-23T05:25:01.447Z,977.5
2023-03-23T05:26:01.443Z,977.5
2023-03-23T05:27:01.424Z,977.5
2023-03-23T05:28:01.416Z,977.7
2023-03-23T05:29:02.386Z,977.7
2023-03-23T05:30:01.525Z,978
2023-03-23T05:31:01.446Z,978
2023-03-23T05:32:01.638Z,978
2023-03-23T05:33:01.425Z,978
2023-03-23T05:34:01.421Z,978
2023-03-23T05:35:01.469Z,978
2023-03-23T05:36:01.430Z,978.2
2023-03-23T05:37:01.473Z,978
2023-03-23T05:38:02.190Z,978
2023-03-23T05:39:01.427Z,978
2023-03-23T05:40:01.487Z,978
2023-03-23T05:41:01.439Z,978
2023-03-23T05:42:01.457Z,977.7
2023-03-23T05:43:01.432Z,978
2023-03-23T05:44:01.430Z,977.5
2023-03-23T05:45:01.498Z,977.5
2023-03-23T05:46:01.448Z,977.3
2023-03-23T05:47:01.468Z,977.3
2023-03-23T05:48:01.442Z,977.5
2023-03-23T05:49:01.439Z,977.3
2023-03-23T05:50:01.480Z,977.1
2023-03-23T05:51:01.436Z,977.1
2023-03-23T05:52:01.443Z,977.1
2023-03-23T05:53:01.441Z,977.1
2023-03-23T05:54:01.465Z,977.1
2023-03-23T05:55:01.441Z,977.5
2023-03-23T05:56:01.465Z,977.5
2023-03-23T05:57:01.467Z,977.5
2023-03-23T05:58:01.515Z,977.5
2023-03-23T05:59:01.476Z,977.3
2023-03-23T06:00:01.467Z,977.1
2023-03-23T06:01:01.487Z,977.1
2023-03-23T06:02:01.639Z,977.1
2023-03-23T06:05:02.158Z,977.3
2023-03-23T06:06:01.386Z,977.1
2023-03-23T06:07:01.387Z,977.5
2023-03-23T06:08:01.389Z,977.5
2023-03-23T06:09:01.388Z,978
2023-03-23T06:10:01.410Z,977.5
2023-03-23T06:11:01.406Z,977.5
2023-03-23T06:12:01.412Z,978
2023-03-23T06:13:01.384Z,978
2023-03-23T06:14:01.376Z,977.5
2023-03-23T06:15:01.390Z,978
2023-03-23T06:16:01.401Z,978
2023-03-23T06:17:01.397Z,978
2023-03-23T06:18:01.399Z,977.5
2023-03-23T06:19:01.380Z,977.7
2023-03-23T06:20:01.405Z,978
2023-03-23T06:21:01.423Z,978
2023-03-23T06:22:01.403Z,978
2023-03-23T06:23:01.411Z,977.5
2023-03-23T06:24:01.386Z,977.5
2023-03-23T06:25:01.434Z,977.7
2023-03-23T06:26:03.974Z,977.3
2023-03-23T06:27:01.408Z,977.1
2023-03-23T06:28:00.328Z,977.5
2023-03-23T06:29:00.323Z,977.3
2023-03-23T06:30:00.339Z,977.5
2023-03-23T06:31:00.344Z,977.5
2023-03-23T06:32:00.331Z,977.5
2023-03-23T06:33:00.323Z,977.5
2023-03-23T06:34:00.329Z,977.5
2023-03-23T06:35:00.355Z,977.1
2023-03-23T06:36:00.389Z,977.1
2023-03-23T06:37:00.328Z,976.9
2023-03-23T06:38:00.345Z,976.9
2023-03-23T06:39:00.329Z,977.1
2023-03-23T06:40:00.344Z,977.1
2023-03-23T06:41:00.349Z,976.7
2023-03-23T06:42:00.353Z,976.7
2023-03-23T06:43:00.362Z,976.4
2023-03-23T06:44:00.349Z,976.4
2023-03-23T06:45:00.354Z,976.7
2023-03-23T06:46:00.329Z,976.9
2023-03-23T06:47:00.330Z,977.1
2023-03-23T06:48:00.352Z,976.2
2023-03-23T06:49:00.330Z,976.2
2023-03-23T06:50:00.340Z,976.2
2023-03-23T06:51:00.360Z,976.2
2023-03-23T06:52:00.352Z,974.7
2023-03-23T06:53:00.359Z,975.1
2023-03-23T06:54:00.340Z,975.8
2023-03-23T06:55:00.344Z,974.7
2023-03-23T06:56:00.364Z,973.8
2023-03-23T06:57:00.351Z,973.6
2023-03-23T06:58:00.369Z,973.6
2023-03-23T06:59:00.347Z,973.4
2023-03-23T07:00:00.346Z,974
2023-03-23T07:01:00.347Z,972.7
2023-03-23T07:02:00.360Z,973.4
2023-03-23T07:03:00.375Z,973.6
2023-03-23T07:04:00.339Z,973.2
2023-03-23T07:05:00.407Z,972.3
2023-03-23T07:06:00.355Z,971.9
2023-03-23T07:07:00.363Z,971.9
2023-03-23T07:08:00.383Z,971.7
2023-03-23T07:09:00.366Z,971.4
2023-03-23T07:10:00.365Z,970.6
2023-03-23T07:11:00.392Z,970.4
2023-03-23T07:12:00.382Z,970.1
2023-03-23T07:13:00.386Z,969.7
2023-03-23T07:14:00.364Z,969.9
2023-03-23T07:15:00.376Z,970.4
2023-03-23T07:16:00.372Z,970.1
2023-03-23T07:17:00.381Z,969.3
2023-03-23T07:18:00.386Z,969.7
2023-03-23T07:19:00.381Z,969.7
2023-03-23T07:20:00.394Z,969.3
2023-03-23T07:21:00.362Z,969.7
2023-03-23T07:22:00.377Z,969.9
2023-03-23T07:23:00.364Z,969.9
2023-03-23T07:24:00.391Z,969.5
2023-03-23T07:25:00.383Z,969.7
2023-03-23T07:26:00.409Z,968.8
2023-03-23T07:27:00.389Z,968.4
2023-03-23T07:28:00.387Z,968
2023-03-23T07:29:00.398Z,968
2023-03-23T07:30:00.386Z,968
2023-03-23T07:31:00.389Z,968.8
2023-03-23T07:32:00.388Z,968
2023-03-23T07:33:00.517Z,967.5
2023-03-23T07:34:00.386Z,967.5
2023-03-23T07:35:00.389Z,967.3
2023-03-23T07:36:00.437Z,968
2023-03-23T07:37:00.413Z,967.5
2023-03-23T07:38:00.403Z,967.5
2023-03-23T07:39:00.382Z,966.9
2023-03-23T07:40:00.389Z,967.5
2023-03-23T07:41:00.379Z,967.5
2023-03-23T07:42:00.395Z,967.1
2023-03-23T07:43:00.422Z,967.1
2023-03-23T07:44:00.379Z,967.1
2023-03-23T07:45:00.407Z,966.7
2023-03-23T07:46:00.391Z,966.2
2023-03-23T07:47:00.397Z,966.2
2023-03-23T07:48:01.953Z,965.8
2023-03-23T07:49:00.409Z,965.1
2023-03-23T07:50:00.405Z,965.8
2023-03-23T07:51:00.417Z,965.4
2023-03-23T07:52:00.408Z,965.4
2023-03-23T07:53:00.417Z,965.4
2023-03-23T07:54:01.209Z,964.9
2023-03-23T07:55:00.408Z,964.9
2023-03-23T07:56:00.405Z,964.7
2023-03-23T07:57:00.396Z,964
2023-03-23T07:58:00.836Z,964.5
2023-03-23T07:59:00.602Z,963.6
2023-03-23T08:00:00.412Z,964.3
2023-03-23T08:01:00.399Z,964.3
2023-03-23T08:02:00.423Z,964.3
2023-03-23T08:03:00.426Z,964.3
2023-03-23T08:04:00.428Z,963.8
2023-03-23T08:05:00.430Z,964.3
2023-03-23T08:06:00.422Z,964
2023-03-23T08:07:00.426Z,964
2023-03-23T08:08:00.459Z,964
2023-03-23T08:09:00.407Z,964.5
2023-03-23T08:10:00.492Z,963.6
2023-03-23T08:11:00.412Z,964.3
2023-03-23T08:12:00.428Z,964.9
2023-03-23T08:13:00.431Z,964
2023-03-23T08:14:00.444Z,964.5
2023-03-23T08:15:00.457Z,964.3
2023-03-23T08:16:00.418Z,964.3
2023-03-23T08:17:00.426Z,964
2023-03-23T08:18:00.432Z,964
2023-03-23T08:19:00.433Z,963.2
2023-03-23T08:20:00.526Z,963.6
2023-03-23T08:21:00.441Z,963
2023-03-23T08:22:00.463Z,963.6
2023-03-23T08:23:00.440Z,963.4
2023-03-23T08:24:00.423Z,963
2023-03-23T08:25:00.445Z,962.7
2023-03-23T08:26:00.428Z,963.4
2023-03-23T08:27:00.440Z,963.2
2023-03-23T08:28:00.441Z,962.7
2023-03-23T08:29:00.427Z,963.2
2023-03-23T08:30:00.431Z,963
2023-03-23T08:31:00.442Z,963.6
2023-03-23T08:32:00.446Z,963.6
2023-03-23T08:33:00.428Z,963.2
2023-03-23T08:34:00.449Z,963.6
2023-03-23T08:35:00.457Z,963.2
2023-03-23T08:36:00.485Z,963.2
2023-03-23T08:37:00.461Z,963.6
2023-03-23T08:38:00.441Z,963.2
2023-03-23T08:39:00.461Z,963
2023-03-23T08:40:00.558Z,962.7
2023-03-23T08:41:00.446Z,963
2023-03-23T08:42:00.438Z,963
2023-03-23T08:43:01.269Z,963.2
2023-03-23T08:44:00.444Z,963.2
2023-03-23T08:45:00.458Z,963.2
2023-03-23T08:46:00.519Z,963.2
2023-03-23T08:47:00.440Z,963.2
2023-03-23T08:48:00.474Z,962.7
2023-03-23T08:49:00.468Z,963
2023-03-23T08:50:00.492Z,963.2
2023-03-23T08:51:00.469Z,962.7
2023-03-23T08:52:00.460Z,962.7
2023-03-23T08:53:00.474Z,963
2023-03-23T08:54:00.455Z,963
2023-03-23T08:55:00.477Z,963.2
2023-03-23T08:56:00.450Z,962.7
2023-03-23T08:57:00.485Z,962.5
2023-03-23T08:58:00.478Z,962.7
2023-03-23T08:59:01.536Z,962.3
2023-03-23T09:00:00.507Z,962.7
2023-03-23T09:01:00.455Z,962.3
2023-03-23T09:02:00.484Z,962.1
2023-03-23T09:03:00.464Z,962.7
2023-03-23T09:04:00.494Z,962.5
2023-03-23T09:05:00.517Z,962.7
2023-03-23T09:06:00.481Z,962.5
2023-03-23T09:07:00.467Z,962.3
2023-03-23T09:08:00.495Z,962.3
2023-03-23T09:09:00.479Z,961.9
2023-03-23T09:10:00.498Z,962.1
2023-03-23T09:11:00.486Z,961.9
2023-03-23T09:12:00.489Z,962.1
2023-03-23T09:13:00.494Z,961.4
2023-03-23T09:14:00.506Z,961.9
2023-03-23T09:15:00.522Z,961.4
2023-03-23T09:16:00.827Z,962.3
2023-03-23T09:17:00.499Z,962.3
2023-03-23T09:18:01.344Z,962.3
2023-03-23T09:19:00.512Z,962.3
2023-03-23T09:20:00.516Z,962.7
2023-03-23T09:21:00.475Z,962.3
2023-03-23T09:22:00.498Z,961.9
2023-03-23T09:23:00.479Z,962.1
2023-03-23T09:24:00.498Z,961.9
2023-03-23T09:25:00.848Z,962.1
2023-03-23T09:26:00.489Z,962.1
2023-03-23T09:27:00.519Z,961.7
2023-03-23T09:28:00.489Z,961.9
2023-03-23T09:29:00.503Z,961
2023-03-23T09:30:00.509Z,961
2023-03-23T09:31:00.511Z,961.4
2023-03-23T09:32:00.506Z,961
2023-03-23T09:33:00.488Z,961.4
2023-03-23T09:34:00.530Z,960.8
2023-03-23T09:35:00.492Z,960.6
2023-03-23T09:36:00.511Z,960.6
2023-03-23T09:37:00.548Z,960.8
2023-03-23T09:38:00.502Z,960.1
2023-03-23T09:39:00.494Z,960.1
2023-03-23T09:40:06.732Z,960.1
2023-03-23T09:41:00.514Z,959.3
2023-03-23T09:42:00.523Z,960.6
2023-03-23T09:43:00.518Z,960.6
2023-03-23T09:44:00.494Z,960.1
2023-03-23T09:45:00.504Z,959.9
2023-03-23T09:46:00.522Z,960.1
2023-03-23T09:47:00.540Z,959.7
2023-03-23T09:48:01.099Z,959.3
2023-03-23T09:49:00.523Z,959.7
2023-03-23T09:50:00.515Z,959.9
2023-03-23T09:51:00.504Z,960.4
2023-03-23T09:52:00.541Z,960.1
2023-03-23T09:53:00.510Z,960.1
2023-03-23T09:54:00.510Z,960.1
2023-03-23T09:55:00.530Z,959.5
2023-03-23T09:56:00.517Z,959
2023-03-23T09:57:00.534Z,958.8
2023-03-23T09:58:00.512Z,959.3
2023-03-23T09:59:00.524Z,959.3
2023-03-23T10:00:00.523Z,959.9
2023-03-23T10:01:00.571Z,959.5
2023-03-23T10:02:00.556Z,959.3
2023-03-23T10:03:00.518Z,959.3
2023-03-23T10:04:00.520Z,958.6
2023-03-23T10:05:00.531Z,959.3
2023-03-23T10:06:00.537Z,959.7
2023-03-23T10:07:00.546Z,958.8
2023-03-23T10:08:00.568Z,958.8
2023-03-23T10:09:00.540Z,958.8
2023-03-23T10:10:00.541Z,958.6
2023-03-23T10:11:00.528Z,959.3
2023-03-23T10:12:00.551Z,959.5
2023-03-23T10:13:00.664Z,959.3
2023-03-23T10:14:00.529Z,959
2023-03-23T10:15:00.531Z,957.5
2023-03-23T10:16:00.603Z,958
2023-03-23T10:17:00.607Z,958.4
2023-03-23T10:18:00.578Z,958
2023-03-23T10:19:00.706Z,958.8
2023-03-23T10:20:00.569Z,959.3
2023-03-23T10:21:00.553Z,958
2023-03-23T10:22:00.777Z,958
2023-03-23T10:23:00.628Z,957.3
2023-03-23T10:24:00.563Z,956.9
2023-03-23T10:25:00.737Z,957.5
2023-03-23T10:26:00.598Z,957.5
2023-03-23T10:27:00.665Z,957.5
2023-03-23T10:28:00.651Z,957.1
2023-03-23T10:29:00.602Z,958.8
2023-03-23T10:30:01.073Z,958
2023-03-23T10:31:00.672Z,958
2023-03-23T10:32:00.727Z,957.5
2023-03-23T10:33:00.704Z,956.7
2023-03-23T10:34:00.754Z,956.4
2023-03-23T10:35:00.720Z,956.7
2023-03-23T10:36:00.733Z,956.9
2023-03-23T10:37:00.837Z,957.1
2023-03-23T10:38:00.741Z,957.1
2023-03-23T10:39:00.906Z,956
2023-03-23T10:40:00.749Z,956.2
2023-03-23T10:41:01.514Z,956.2
2023-03-23T10:42:00.796Z,956
2023-03-23T10:43:00.764Z,955.8
2023-03-23T10:44:00.845Z,955.1
2023-03-23T10:45:00.889Z,954.9
2023-03-23T10:46:01.118Z,955.4
2023-03-23T10:47:00.814Z,955.4
2023-03-23T10:48:00.838Z,954.9
2023-03-23T10:49:00.718Z,954.5
2023-03-23T10:50:00.867Z,954.9
2023-03-23T10:51:00.694Z,954.9
2023-03-23T10:52:00.808Z,955.6
2023-03-23T10:53:00.748Z,955.4
2023-03-23T10:54:00.716Z,954.9
2023-03-23T10:55:00.589Z,954.9
2023-03-23T10:56:00.595Z,954
2023-03-23T10:57:02.519Z,954.3
2023-03-23T10:58:00.578Z,954.9
2023-03-23T10:59:00.592Z,954.5
2023-03-23T11:00:00.582Z,955.4
2023-03-23T11:01:00.608Z,954.5
2023-03-23T11:02:00.588Z,954.5
2023-03-23T11:03:00.583Z,954.9
2023-03-23T11:04:00.590Z,954.9
2023-03-23T11:05:03.085Z,954.5
2023-03-23T11:06:00.603Z,954.3
2023-03-23T11:07:00.603Z,954.5
2023-03-23T11:08:00.604Z,954.9
2023-03-23T11:09:00.588Z,954
2023-03-23T11:10:00.589Z,954.5
2023-03-23T11:11:00.619Z,954.5
2023-03-23T11:12:02.551Z,954.9
2023-03-23T11:13:00.613Z,953.2
2023-03-23T11:14:00.611Z,953.6
2023-03-23T11:15:00.598Z,953.6
2023-03-23T11:16:00.624Z,954
2023-03-23T11:17:06.939Z,954.5
2023-03-23T11:18:00.602Z,954.5
2023-03-23T11:19:00.626Z,954.3
2023-03-23T11:20:00.618Z,953.4
2023-03-23T11:21:00.619Z,954
2023-03-23T11:22:00.615Z,953.6
2023-03-23T11:23:00.633Z,953.6
2023-03-23T11:24:09.731Z,954.3
2023-03-23T11:25:00.606Z,954.7
2023-03-23T11:26:00.635Z,953.6
2023-03-23T11:27:00.633Z,954
2023-03-23T11:28:00.626Z,954.9
2023-03-23T11:29:00.612Z,954.9
2023-03-23T11:30:00.613Z,954.9
2023-03-23T11:31:00.634Z,955.4
2023-03-23T11:32:00.613Z,954.9
2023-03-23T11:33:00.614Z,954
2023-03-23T11:34:06.266Z,954.3
2023-03-23T11:35:13.785Z,954.5
2023-03-23T11:36:00.646Z,954.5
2023-03-23T11:37:00.628Z,954
2023-03-23T11:38:00.632Z,953.6
2023-03-23T11:39:00.652Z,954
2023-03-23T11:40:00.648Z,954
2023-03-23T11:41:00.638Z,954
2023-03-23T11:42:09.344Z,953.6
2023-03-23T11:43:00.623Z,953.8
2023-03-23T11:44:00.623Z,954
2023-03-23T11:45:00.635Z,954
2023-03-23T11:46:00.663Z,953.6
2023-03-23T11:47:00.637Z,953.6
2023-03-23T11:48:00.630Z,953
2023-03-23T11:49:00.665Z,953.2
2023-03-23T11:50:00.649Z,953.2
2023-03-23T11:51:00.647Z,952.7
2023-03-23T11:52:00.635Z,952.7
2023-03-23T11:53:00.635Z,952.3
2023-03-23T11:54:00.634Z,953.2
2023-03-23T11:55:00.662Z,953
2023-03-23T11:56:00.723Z,953.2
2023-03-23T11:57:00.659Z,952.7
2023-03-23T11:58:00.637Z,952.7
2023-03-23T11:59:00.651Z,953.4
2023-03-23T12:00:00.785Z,953.6
2023-03-23T12:01:00.658Z,953.2
2023-03-23T12:02:11.635Z,953.2
2023-03-23T12:03:00.670Z,952.5
2023-03-23T12:04:00.645Z,952.7
2023-03-23T12:05:00.670Z,953.6
2023-03-23T12:06:00.676Z,954
2023-03-23T12:07:00.686Z,953.6
2023-03-23T12:08:00.664Z,953.2
2023-03-23T12:09:00.697Z,953.2
2023-03-23T12:10:00.670Z,953.6
2023-03-23T12:11:01.936Z,954
2023-03-23T12:12:00.649Z,953.6
2023-03-23T12:13:00.678Z,952.7
2023-03-23T12:14:00.650Z,953.2
2023-03-23T12:15:00.696Z,953.8
2023-03-23T12:16:00.674Z,953.2
2023-03-23T12:17:00.651Z,953.2
2023-03-23T12:18:00.674Z,953.2
2023-03-23T12:19:00.666Z,952.7
2023-03-23T12:20:00.696Z,952.7
2023-03-23T12:21:00.678Z,952.3
2023-03-23T12:22:00.665Z,952.7
2023-03-23T12:23:00.665Z,952.3
2023-03-23T12:24:03.115Z,952.5
2023-03-23T12:25:00.691Z,952.7
2023-03-23T12:26:00.672Z,953.2
2023-03-23T12:27:00.697Z,953.6
2023-03-23T12:28:00.658Z,953.6
2023-03-23T12:29:00.659Z,954.5
2023-03-23T12:30:00.636Z,953.6
2023-03-23T12:31:00.593Z,953.6
2023-03-23T12:32:00.597Z,953.8
2023-03-23T12:33:00.528Z,954
2023-03-23T12:34:00.488Z,954
2023-03-23T12:35:00.453Z,954.9
2023-03-23T12:36:00.461Z,954.9
2023-03-23T12:37:00.416Z,954.3
2023-03-23T12:38:00.376Z,955.6
2023-03-23T12:39:00.370Z,955.8
2023-03-23T12:40:00.351Z,956.2
2023-03-23T12:41:00.284Z,956.2
2023-03-23T12:42:00.261Z,956.2
2023-03-23T12:43:00.275Z,956.7
2023-03-23T12:44:00.294Z,957.1
2023-03-23T12:45:00.268Z,956.7
2023-03-23T12:46:00.276Z,957.1
2023-03-23T12:47:00.259Z,957.1
2023-03-23T12:48:00.260Z,957.1
2023-03-23T12:49:00.287Z,957.1
2023-03-23T12:50:00.308Z,957.5
2023-03-23T12:51:00.266Z,957.5
2023-03-23T12:52:00.298Z,957.1
2023-03-23T12:53:00.287Z,956.7
2023-03-23T12:54:00.290Z,956.2
2023-03-23T12:55:00.270Z,956.9
2023-03-23T12:56:00.283Z,957.5
2023-03-23T12:57:00.266Z,957.7
2023-03-23T12:58:00.279Z,958.4
2023-03-23T12:59:00.333Z,958.4
2023-03-23T13:00:00.285Z,958
2023-03-23T13:01:00.282Z,958.4